WetterOnline ( https://www.wetteronline.ch )

Wetter aktuell Helgoland

Aktuelles Wetter: Helgoland/Düne (8m)

6-stündlich | Neueste Meldungen
Ortszeit Temperatur Wetter
Do, 25.02. 1:00 8.0° C bewölkt
Mi, 24.02. 19:00 8.4° C bedeckt
Mi, 24.02. 13:00 8.8° C bedeckt
Mi, 24.02. 7:00 7.9° C wolkig
Mi, 24.02. 1:00 8.0° C wolkig
Di, 23.02. 19:00 6.2° C wolkig
Di, 23.02. 13:00 8.0° C wolkig
Di, 23.02. 7:00 6.4° C wolkig
Ortszeit Temperatur Wetter
Do, 25.02. 3:30 8.0° C wolkig
Do, 25.02. 3:20 8.0° C wolkig
Do, 25.02. 3:10 7.8° C wolkig
Do, 25.02. 3:00 7.9° C wolkig
Do, 25.02. 2:50 7.9° C wolkig
Do, 25.02. 2:40 7.9° C wolkig
Do, 25.02. 2:30 7.9° C bewölkt
Do, 25.02. 2:00 8.4° C bewölkt
Ortszeit Relative Feuchte Sichtweite
Do, 25.02. 1:00 82% 24 km
Mi, 24.02. 19:00 87% 25 km
Mi, 24.02. 13:00 84% 18 km
Mi, 24.02. 7:00 87% 21 km
Mi, 24.02. 1:00 89% 25 km
Di, 23.02. 19:00 94% 15 km
Di, 23.02. 13:00 83% 17 km
Di, 23.02. 7:00 86% 16 km
Ortszeit Relative Feuchte Sichtweite
Do, 25.02. 3:30 84% 21 km
Do, 25.02. 3:20 84% -
Do, 25.02. 3:10 84% -
Do, 25.02. 3:00 83% 25 km
Do, 25.02. 2:50 83% -
Do, 25.02. 2:40 83% -
Do, 25.02. 2:30 84% 27 km
Do, 25.02. 2:00 81% 27 km
Ortszeit Niederschlagsmenge Niederschlagsart
Do, 25.02. 1:00 0.1 l/m2 in 6 Std. Regen
Mi, 24.02. 19:00 0.0 l/m2 in 12 Std. -
Mi, 24.02. 13:00 0.0 l/m2 in 6 Std. -
Mi, 24.02. 7:00 0.0 l/m2 in 12 Std. -
Mi, 24.02. 1:00 0.0 l/m2 in 6 Std. -
Di, 23.02. 19:00 0.0 l/m2 in 12 Std. -
Di, 23.02. 13:00 0.0 l/m2 in 6 Std. -
Di, 23.02. 7:00 0.0 l/m2 in 12 Std. -
Ortszeit Niederschlagsmenge Niederschlagsart
Do, 25.02. 3:30 0.0 l/m2 in 1 Std. -
Do, 25.02. 3:20 keine Meldung -
Do, 25.02. 3:10 keine Meldung -
Do, 25.02. 3:00 0.0 l/m2 in 1 Std. -
Do, 25.02. 2:50 keine Meldung -
Do, 25.02. 2:40 keine Meldung -
Do, 25.02. 2:30 0.0 l/m2 in 1 Std. -
Do, 25.02. 2:00 0.0 l/m2 in 1 Std. -
Ortszeit Stärke Spitze Richtung
km/h Bft. km/h Grad Sektor
Do, 25.02. 1:00 18 3 32 200° S
Mi, 24.02. 19:00 17 3 37 190° S
Mi, 24.02. 13:00 25 4 40 210° SW
Mi, 24.02. 7:00 24 4 33 190° S
Mi, 24.02. 1:00 22 4 29 200° S
Di, 23.02. 19:00 15 3 28 230° SW
Di, 23.02. 13:00 18 3 25 200° S
Di, 23.02. 7:00 11 2 32 190° S
Ortszeit Stärke Spitze Richtung
km/h Bft. km/h Grad Sektor
Do, 25.02. 3:30 20 4 28 200° S
Do, 25.02. 3:20 20 4 - 200° S
Do, 25.02. 3:10 20 4 - 200° S
Do, 25.02. 3:00 20 4 30 190° S
Do, 25.02. 2:50 20 4 - 190° S
Do, 25.02. 2:40 20 4 - 190° S
Do, 25.02. 2:30 18 3 29 190° S
Do, 25.02. 2:00 18 3 29 200° S
Ortszeit Untergrenze Bedeckung Gattung
total tief tief mittel hoch
Do, 25.02. 1:00 2700 m 7/8 7/8 - - -
Mi, 24.02. 19:00 2400 m 8/8 8/8 - - -
Mi, 24.02. 13:00 2100 m 8/8 8/8 - - -
Mi, 24.02. 7:00 8100 m 8/8 0/8 - - -
Mi, 24.02. 1:00 9000 m 8/8 0/8 - - -
Di, 23.02. 19:00 1290 m 7/8 4/8 - - -
Di, 23.02. 13:00 480 m 6/8 6/8 - - -
Di, 23.02. 7:00 1380 m 7/8 5/8 - - -
Ortszeit Bedeckungsgrad in Achtel und Wolkenuntergrenze
Do, 25.02. 3:30 8(8100m) 8(9000m)
Do, 25.02. 3:20 8(8100m) 8(9000m)
Do, 25.02. 3:10 8(7800m) 8(9000m)
Do, 25.02. 3:00 6(7800m) 8(8400m) 8(9000m)
Do, 25.02. 2:50 6(7800m) 8(8400m)
Do, 25.02. 2:40 2(2700m) 6(7800m) 8(8400m)
Do, 25.02. 2:30 7(2700m) 7(8100m)
Do, 25.02. 2:00 6(2700m) 8(8400m) 8(9000m)
Ortszeit Luftdruck NN (hPa) Tendenz (hPa in 3 Std.)
Do, 25.02. 1:00 1024 - 0,4
Mi, 24.02. 19:00 1025 - 0,6
Mi, 24.02. 13:00 1026 + 0,2
Mi, 24.02. 7:00 1026 - 0,2
Mi, 24.02. 1:00 1027 - 0,1
Di, 23.02. 19:00 1029 + 1,4
Di, 23.02. 13:00 1027 + 0,8
Di, 23.02. 7:00 1025 + 0,6
Ortszeit Luftdruck NN (hPa) Tendenz (hPa in 3 Std.)
Do, 25.02. 3:30 1023 - 1,1
Do, 25.02. 3:20 1023 keine Meldung
Do, 25.02. 3:10 1023 keine Meldung
Do, 25.02. 3:00 1023 - 1,0
Do, 25.02. 2:50 1023 keine Meldung
Do, 25.02. 2:40 1023 keine Meldung
Do, 25.02. 2:30 1023 - 0,6
Do, 25.02. 2:00 1024 - 0,6
Ortszeit Schneehöhe (cm)
Do, 25.02. 1:00 0
Mi, 24.02. 19:00 0
Mi, 24.02. 13:00 0
Mi, 24.02. 7:00 0
Mi, 24.02. 1:00 0
Di, 23.02. 19:00 0
Di, 23.02. 13:00 0
Di, 23.02. 7:00 0
Ortszeit Schneehöhe (cm)
Do, 25.02. 3:30 0
Do, 25.02. 3:20 0
Do, 25.02. 3:10 0
Do, 25.02. 3:00 0
Do, 25.02. 2:50 0
Do, 25.02. 2:40 0
Do, 25.02. 2:30 0
Do, 25.02. 2:00 0
Link zu dieser Seite / Seite empfehlen

Das Wetter in ...